createdAt,value
2017-10-23T00:00:54.646Z,9.70
2017-10-23T00:03:22.370Z,9.70
2017-10-23T00:05:50.146Z,9.70
2017-10-23T00:08:18.114Z,9.70
2017-10-23T00:10:45.880Z,9.70
2017-10-23T00:13:13.644Z,9.80
2017-10-23T00:15:42.126Z,9.80
2017-10-23T00:18:09.994Z,9.70
2017-10-23T00:20:37.760Z,9.70
2017-10-23T00:23:05.524Z,9.80
2017-10-23T00:25:33.291Z,9.80
2017-10-23T00:28:01.038Z,9.70
2017-10-23T00:30:28.641Z,9.80
2017-10-23T00:32:56.483Z,9.80
2017-10-23T00:35:24.352Z,9.80
2017-10-23T00:37:52.219Z,9.80
2017-10-23T00:40:20.089Z,9.80
2017-10-23T00:42:47.955Z,9.80
2017-10-23T00:45:15.720Z,9.80
2017-10-23T00:47:44.259Z,9.80
2017-10-23T00:50:12.818Z,9.80
2017-10-23T00:52:40.541Z,9.80
2017-10-23T00:55:08.264Z,9.80
2017-10-23T00:57:36.084Z,9.80
2017-10-23T01:00:03.913Z,9.80
2017-10-23T01:02:32.392Z,9.70
2017-10-23T01:05:00.955Z,9.80
2017-10-23T01:07:28.679Z,9.80
2017-10-23T01:09:56.448Z,9.80
2017-10-23T01:12:24.319Z,9.80
2017-10-23T01:14:51.980Z,9.80
2017-10-23T01:17:19.814Z,9.80
2017-10-23T01:19:48.532Z,9.70
2017-10-23T01:22:16.333Z,9.70
2017-10-23T01:24:44.166Z,9.60
2017-10-23T01:27:12.019Z,9.60
2017-10-23T01:29:40.283Z,9.60
2017-10-23T01:32:08.387Z,9.50
2017-10-23T01:34:36.050Z,9.50
2017-10-23T01:37:04.635Z,9.50
2017-10-23T01:39:32.499Z,9.50
2017-10-23T01:42:00.367Z,9.50
2017-10-23T01:44:28.122Z,9.50
2017-10-23T01:46:55.898Z,9.50
2017-10-23T01:49:23.769Z,9.50
2017-10-23T01:51:51.750Z,9.50
2017-10-23T01:54:19.496Z,9.60
2017-10-23T01:56:47.336Z,9.60
2017-10-23T01:59:15.851Z,9.60
2017-10-23T02:01:43.627Z,9.60
2017-10-23T02:04:11.382Z,9.60
2017-10-23T02:06:39.181Z,9.60
2017-10-23T02:09:07.221Z,9.60
2017-10-23T02:11:34.995Z,9.60
2017-10-23T02:14:02.751Z,9.60
2017-10-23T02:16:30.673Z,9.60
2017-10-23T02:18:58.529Z,9.70
2017-10-23T02:21:27.176Z,9.70
2017-10-23T02:23:55.145Z,9.70
2017-10-23T02:26:22.911Z,9.70
2017-10-23T02:28:50.778Z,9.70
2017-10-23T02:31:18.647Z,9.70
2017-10-23T02:33:46.410Z,9.70
2017-10-23T02:36:14.176Z,9.70
2017-10-23T02:38:42.814Z,9.70
2017-10-23T02:41:11.347Z,9.80
2017-10-23T02:43:39.103Z,9.80
2017-10-23T02:46:06.877Z,9.70
2017-10-23T02:48:34.546Z,9.70
2017-10-23T02:51:02.313Z,9.80
2017-10-23T02:53:29.989Z,9.80
2017-10-23T02:55:57.715Z,9.80
2017-10-23T02:58:25.601Z,9.80
2017-10-23T03:00:54.844Z,9.80
2017-10-23T03:03:22.580Z,9.80
2017-10-23T03:05:51.129Z,9.80
2017-10-23T03:08:18.915Z,9.80
2017-10-23T03:10:46.885Z,9.80
2017-10-23T03:13:14.858Z,9.80
2017-10-23T03:15:42.621Z,9.80
2017-10-23T03:18:10.489Z,9.80
2017-10-23T03:20:38.358Z,9.80
2017-10-23T03:23:06.148Z,9.80
2017-10-23T03:25:33.892Z,9.80
2017-10-23T03:28:01.756Z,9.80
2017-10-23T03:30:29.556Z,9.80
2017-10-23T03:32:57.330Z,9.80
2017-10-23T03:35:25.873Z,9.70
2017-10-23T03:37:53.739Z,9.70
2017-10-23T03:40:21.527Z,9.70
2017-10-23T03:42:49.482Z,9.70
2017-10-23T03:45:17.239Z,9.70
2017-10-23T03:47:45.775Z,9.70
2017-10-23T03:50:13.590Z,9.70
2017-10-23T03:52:41.371Z,9.70
2017-10-23T03:55:10.051Z,9.80
2017-10-23T03:57:39.038Z,9.80
2017-10-23T04:00:06.796Z,9.80
2017-10-23T04:02:34.875Z,9.80
2017-10-23T04:05:02.733Z,9.80
2017-10-23T04:07:30.721Z,9.70
2017-10-23T04:09:58.580Z,9.70
2017-10-23T04:12:26.561Z,9.70
2017-10-23T04:14:54.530Z,9.70
2017-10-23T04:17:22.567Z,9.70
2017-10-23T04:19:50.244Z,9.70
2017-10-23T04:22:18.135Z,9.60
2017-10-23T04:24:45.997Z,9.70
2017-10-23T04:27:13.771Z,9.70
2017-10-23T04:29:41.526Z,9.70
2017-10-23T04:32:10.111Z,9.70
2017-10-23T04:34:38.080Z,9.70
2017-10-23T04:37:05.946Z,9.70
2017-10-23T04:39:33.712Z,9.80
2017-10-23T04:42:01.580Z,9.70
2017-10-23T04:44:30.054Z,9.80
2017-10-23T04:46:57.931Z,9.80
2017-10-23T04:49:25.899Z,9.80
2017-10-23T04:51:53.580Z,9.80
2017-10-23T04:54:21.438Z,9.80
2017-10-23T04:56:49.299Z,9.80
2017-10-23T04:59:17.269Z,9.80
2017-10-23T05:01:45.016Z,9.90
2017-10-23T05:04:12.611Z,9.90
2017-10-23T05:06:40.361Z,9.90
2017-10-23T05:09:08.179Z,9.90
2017-10-23T05:11:36.711Z,9.90
2017-10-23T05:14:04.464Z,9.90
2017-10-23T05:16:32.183Z,9.90
2017-10-23T05:19:00.007Z,9.90
2017-10-23T05:21:27.776Z,9.90
2017-10-23T05:23:56.356Z,9.90
2017-10-23T05:26:24.226Z,9.90
2017-10-23T05:28:51.997Z,9.90
2017-10-23T05:31:19.762Z,9.90
2017-10-23T05:33:47.726Z,9.90
2017-10-23T05:36:15.593Z,9.90
2017-10-23T05:38:43.462Z,9.90
2017-10-23T05:41:11.210Z,10.00
2017-10-23T05:43:39.096Z,10.00
2017-10-23T05:46:06.900Z,10.00
2017-10-23T05:48:35.061Z,10.00
2017-10-23T05:51:02.904Z,10.00
2017-10-23T05:53:30.663Z,9.90
2017-10-23T05:55:58.748Z,10.00
2017-10-23T05:58:26.613Z,10.00
2017-10-23T06:00:55.322Z,9.90
2017-10-23T06:03:23.881Z,10.00
2017-10-23T06:05:51.751Z,10.00
2017-10-23T06:08:19.639Z,10.00
2017-10-23T06:10:47.361Z,10.00
2017-10-23T06:13:15.086Z,10.00
2017-10-23T06:15:43.019Z,10.00
2017-10-23T06:18:10.990Z,10.00
2017-10-23T06:20:38.854Z,10.00
2017-10-23T06:23:06.619Z,10.00
2017-10-23T06:25:34.488Z,10.00
2017-10-23T06:28:02.261Z,10.00
2017-10-23T06:30:30.018Z,10.00
2017-10-23T06:32:57.988Z,10.00
2017-10-23T06:35:25.787Z,10.00
2017-10-23T06:37:53.515Z,10.00
2017-10-23T06:40:21.235Z,10.00
2017-10-23T06:42:49.151Z,10.00
2017-10-23T06:45:17.122Z,10.10
2017-10-23T06:47:44.990Z,10.10
2017-10-23T06:50:12.756Z,10.10
2017-10-23T06:52:41.305Z,10.20
2017-10-23T06:55:09.208Z,10.10
2017-10-23T06:57:36.972Z,10.20
2017-10-23T07:00:04.742Z,10.20
2017-10-23T07:02:32.657Z,10.20
2017-10-23T07:05:01.192Z,10.30
2017-10-23T07:07:28.944Z,10.30
2017-10-23T07:09:56.555Z,10.30
2017-10-23T07:12:24.269Z,10.30
2017-10-23T07:14:52.050Z,10.30
2017-10-23T07:17:20.075Z,10.30
2017-10-23T07:19:48.603Z,10.30
2017-10-23T07:22:16.477Z,10.30
2017-10-23T07:24:44.321Z,10.40
2017-10-23T07:27:12.513Z,10.40
2017-10-23T07:29:40.692Z,10.30
2017-10-23T07:32:08.563Z,10.40
2017-10-23T07:34:36.323Z,10.40
2017-10-23T07:37:04.190Z,10.40
2017-10-23T07:39:32.059Z,10.40
2017-10-23T07:41:59.960Z,10.40
2017-10-23T07:44:27.795Z,10.50
2017-10-23T07:46:55.560Z,10.60
2017-10-23T07:49:23.367Z,10.60
2017-10-23T07:51:51.070Z,10.60
2017-10-23T07:54:18.855Z,10.50
2017-10-23T07:56:46.516Z,10.60
2017-10-23T07:59:14.283Z,10.60
2017-10-23T08:01:42.151Z,10.60
2017-10-23T08:04:09.815Z,10.60
2017-10-23T08:06:37.530Z,10.60
2017-10-23T08:09:05.347Z,10.70
2017-10-23T08:11:33.105Z,10.70
2017-10-23T08:14:01.798Z,10.80
2017-10-23T08:16:29.500Z,10.80
2017-10-23T08:18:57.431Z,10.90
2017-10-23T08:21:25.183Z,10.80
2017-10-23T08:23:52.962Z,10.80
2017-10-23T08:26:20.834Z,10.80
2017-10-23T08:28:48.807Z,10.80
2017-10-23T08:31:16.559Z,10.80
2017-10-23T08:33:44.336Z,10.70
2017-10-23T08:36:12.119Z,10.70
2017-10-23T08:38:39.838Z,10.70
2017-10-23T08:41:08.524Z,10.60
2017-10-23T08:43:37.134Z,10.60
2017-10-23T08:46:05.104Z,10.50
2017-10-23T08:48:32.972Z,10.60
2017-10-23T08:51:00.856Z,10.70
2017-10-23T08:53:28.707Z,10.70
2017-10-23T08:55:56.472Z,10.70
2017-10-23T08:58:24.263Z,10.70
2017-10-23T09:00:52.105Z,10.80
2017-10-23T09:03:19.974Z,11.00
2017-10-23T09:05:47.841Z,11.10
2017-10-23T09:08:15.709Z,11.20
2017-10-23T09:10:43.577Z,11.30
2017-10-23T09:13:11.344Z,11.30
2017-10-23T09:15:39.159Z,11.50
2017-10-23T09:18:07.081Z,11.70
2017-10-23T09:20:34.946Z,11.70
2017-10-23T09:23:02.712Z,11.80
2017-10-23T09:25:30.529Z,11.90
2017-10-23T09:27:58.344Z,11.80
2017-10-23T09:30:26.099Z,11.80
2017-10-23T09:32:53.818Z,11.70
2017-10-23T09:35:21.700Z,11.60
2017-10-23T09:37:49.406Z,11.70
2017-10-23T09:40:17.224Z,11.50
2017-10-23T09:42:46.576Z,11.50
2017-10-23T09:45:14.352Z,11.50
2017-10-23T09:47:42.105Z,11.60
2017-10-23T09:50:10.695Z,11.70
2017-10-23T09:52:38.560Z,11.70
2017-10-23T09:55:06.328Z,11.60
2017-10-23T09:57:34.043Z,11.60
2017-10-23T10:00:02.783Z,11.70
2017-10-23T10:02:30.750Z,11.60
2017-10-23T10:04:58.624Z,11.80
2017-10-23T10:07:26.483Z,11.80
2017-10-23T10:09:54.252Z,11.90
2017-10-23T10:12:22.833Z,12.10
2017-10-23T10:14:50.708Z,12.10
2017-10-23T10:17:18.364Z,12.10
2017-10-23T10:19:46.130Z,12.20
2017-10-23T10:22:13.998Z,12.30
2017-10-23T10:24:41.764Z,12.30
2017-10-23T10:27:09.631Z,12.30
2017-10-23T10:29:38.216Z,12.40
2017-10-23T10:32:06.083Z,12.40
2017-10-23T10:34:33.951Z,12.30
2017-10-23T10:37:01.717Z,12.20
2017-10-23T10:39:30.300Z,12.30
2017-10-23T10:41:58.170Z,12.30
2017-10-23T10:44:26.037Z,12.30
2017-10-23T10:46:53.804Z,12.30
2017-10-23T10:49:21.771Z,12.40
2017-10-23T10:51:50.358Z,12.60
2017-10-23T10:54:18.327Z,12.60
2017-10-23T10:56:46.196Z,12.70
2017-10-23T10:59:13.949Z,12.60
2017-10-23T11:01:41.673Z,12.40
2017-10-23T11:04:10.954Z,12.10
2017-10-23T11:06:38.689Z,12.10
2017-10-23T11:09:06.456Z,12.30
2017-10-23T11:11:34.324Z,12.10
2017-10-23T11:14:02.204Z,11.90
2017-10-23T11:16:29.967Z,11.90
2017-10-23T11:18:57.825Z,11.80
2017-10-23T11:21:25.704Z,11.70
2017-10-23T11:23:53.561Z,11.60
2017-10-23T11:26:21.327Z,11.40
2017-10-23T11:28:49.195Z,11.30
2017-10-23T11:31:17.062Z,11.20
2017-10-23T11:33:44.931Z,11.10
2017-10-23T11:36:12.695Z,11.00
2017-10-23T11:38:41.998Z,11.00
2017-10-23T11:41:09.762Z,11.00
2017-10-23T11:43:37.637Z,11.00
2017-10-23T11:46:05.484Z,10.90
2017-10-23T11:48:33.263Z,10.90
2017-10-23T11:51:01.139Z,10.90
2017-10-23T11:53:28.897Z,10.90
2017-10-23T11:55:57.584Z,10.90
2017-10-23T11:58:25.350Z,10.90
2017-10-23T12:00:53.217Z,10.90
2017-10-23T12:03:21.114Z,10.90
2017-10-23T12:05:48.761Z,10.90
2017-10-23T12:08:16.719Z,10.80
2017-10-23T12:10:44.628Z,10.80
2017-10-23T12:13:12.379Z,10.70
2017-10-23T12:15:41.036Z,10.70
2017-10-23T12:18:08.915Z,10.70
2017-10-23T12:20:37.437Z,10.90
2017-10-23T12:23:05.257Z,10.80
2017-10-23T12:25:33.002Z,10.80
2017-10-23T12:28:00.789Z,10.70
2017-10-23T12:30:28.655Z,10.60
2017-10-23T12:32:56.422Z,10.60
2017-10-23T12:35:24.289Z,10.60
2017-10-23T12:37:53.595Z,10.60
2017-10-23T12:40:21.673Z,10.60
2017-10-23T12:42:49.340Z,10.50
2017-10-23T12:45:17.097Z,10.50
2017-10-23T12:47:45.145Z,10.40
2017-10-23T12:50:13.590Z,10.50
2017-10-23T12:52:41.421Z,10.50
2017-10-23T12:55:09.382Z,10.50
2017-10-23T12:57:37.148Z,10.50
2017-10-23T13:00:05.733Z,10.50
2017-10-23T13:02:33.706Z,10.40
2017-10-23T13:05:01.604Z,10.60
2017-10-23T13:07:29.329Z,10.60
2017-10-23T13:09:57.104Z,10.60
2017-10-23T13:12:25.012Z,10.60
2017-10-23T13:14:52.837Z,10.60
2017-10-23T13:17:20.603Z,10.60
2017-10-23T13:19:49.289Z,10.60
2017-10-23T13:22:17.102Z,10.60
2017-10-23T13:24:44.922Z,10.70
2017-10-23T13:27:12.676Z,10.70
2017-10-23T13:29:40.454Z,10.70
2017-10-23T13:32:08.238Z,10.60
2017-10-23T13:34:35.987Z,10.60
2017-10-23T13:37:03.798Z,10.60
2017-10-23T13:39:31.521Z,10.60
2017-10-23T13:41:59.587Z,10.60
2017-10-23T13:44:27.472Z,10.60
2017-10-23T13:46:56.007Z,10.50
2017-10-23T13:49:24.523Z,10.60
2017-10-23T13:51:52.415Z,10.60
2017-10-23T13:54:20.146Z,10.60
2017-10-23T13:56:58.366Z,10.60
2017-10-23T13:59:26.142Z,10.60
2017-10-23T14:01:53.898Z,10.50
2017-10-23T14:04:22.482Z,10.50
2017-10-23T14:06:50.452Z,10.50
2017-10-23T14:09:18.217Z,10.50
2017-10-23T14:11:45.983Z,10.60
2017-10-23T14:14:13.853Z,10.60
2017-10-23T14:16:41.721Z,10.50
2017-10-23T14:19:09.691Z,10.50
2017-10-23T14:21:37.557Z,10.50
2017-10-23T14:24:05.430Z,10.50
2017-10-23T14:26:34.105Z,10.50
2017-10-23T14:29:01.878Z,10.50
2017-10-23T14:31:29.750Z,10.50
2017-10-23T14:33:57.502Z,10.50
2017-10-23T14:36:25.101Z,10.50
2017-10-23T14:41:44.555Z,10.50
2017-10-23T14:44:12.432Z,10.60
2017-10-23T14:46:40.240Z,10.60
2017-10-23T14:49:08.169Z,10.70
2017-10-23T14:51:35.933Z,10.60
2017-10-23T14:54:03.699Z,10.70
2017-10-23T14:56:31.567Z,10.70
2017-10-23T14:58:59.447Z,10.60
2017-10-23T15:01:27.200Z,10.70
2017-10-23T15:03:55.169Z,10.70
2017-10-23T15:06:22.974Z,10.70
2017-10-23T15:08:50.818Z,10.70
2017-10-23T15:11:18.672Z,10.70
2017-10-23T15:13:46.395Z,10.70
2017-10-23T15:16:14.305Z,10.70
2017-10-23T15:18:42.276Z,10.70
2017-10-23T15:21:10.350Z,10.70
2017-10-23T15:23:38.215Z,10.70
2017-10-23T15:26:06.438Z,10.80
2017-10-23T15:28:34.262Z,10.70
2017-10-23T15:31:02.027Z,10.70
2017-10-23T15:33:30.561Z,10.80
2017-10-23T15:35:58.390Z,10.70
2017-10-23T15:38:26.350Z,10.80
2017-10-23T15:40:54.093Z,10.80
2017-10-23T15:43:21.894Z,10.80
2017-10-23T15:45:49.749Z,10.80
2017-10-23T15:48:17.713Z,10.80
2017-10-23T15:50:45.460Z,10.80
2017-10-23T15:53:13.244Z,10.70
2017-10-23T15:55:41.112Z,10.80
2017-10-23T15:58:09.089Z,10.80
2017-10-23T16:00:36.843Z,10.90
2017-10-23T16:03:04.555Z,10.80
2017-10-23T16:05:32.287Z,10.90
2017-10-23T16:08:00.148Z,10.90
2017-10-23T16:10:27.963Z,10.90
2017-10-23T16:12:55.779Z,10.90
2017-10-23T16:15:23.541Z,10.90
2017-10-23T16:17:51.308Z,10.90
2017-10-23T16:20:19.178Z,10.90
2017-10-23T16:22:47.044Z,10.90
2017-10-23T16:25:14.809Z,10.90
2017-10-23T16:27:42.635Z,10.90
2017-10-23T16:30:11.262Z,10.90
2017-10-23T16:32:39.265Z,10.90
2017-10-23T16:35:07.202Z,10.90
2017-10-23T16:37:34.952Z,10.90
2017-10-23T16:40:02.740Z,10.90
2017-10-23T16:42:30.518Z,11.00
2017-10-23T16:44:58.267Z,10.90
2017-10-23T16:47:26.036Z,11.00
2017-10-23T16:49:53.804Z,11.00
2017-10-23T16:52:21.567Z,11.00
2017-10-23T16:54:49.432Z,11.00
2017-10-23T16:57:17.196Z,11.00
2017-10-23T16:59:44.959Z,11.00
2017-10-23T17:02:13.544Z,11.10
2017-10-23T17:04:41.340Z,11.00
2017-10-23T17:07:09.075Z,11.00
2017-10-23T17:09:36.865Z,11.10
2017-10-23T17:12:14.590Z,11.10
2017-10-23T17:14:42.413Z,11.10
2017-10-23T17:17:10.157Z,11.00
2017-10-23T17:19:37.939Z,11.10
2017-10-23T17:22:05.806Z,11.00
2017-10-23T17:24:33.776Z,11.00
2017-10-23T17:27:01.441Z,11.10
2017-10-23T17:29:30.026Z,11.10
2017-10-23T17:31:57.891Z,11.10
2017-10-23T17:34:25.759Z,11.10
2017-10-23T17:36:53.527Z,11.10
2017-10-23T17:39:32.577Z,11.10
2017-10-23T17:42:00.424Z,11.10
2017-10-23T17:44:28.393Z,11.10
2017-10-23T17:46:56.144Z,11.10
2017-10-23T17:49:23.925Z,11.10
2017-10-23T17:51:51.799Z,11.10
2017-10-23T17:54:19.555Z,11.10
2017-10-23T17:56:47.322Z,11.10
2017-10-23T17:59:15.190Z,11.10
2017-10-23T18:01:42.961Z,11.10
2017-10-23T18:04:11.029Z,11.10
2017-10-23T18:06:38.896Z,11.00
2017-10-23T18:09:06.732Z,11.00
2017-10-23T18:11:35.349Z,11.00
2017-10-23T18:14:03.137Z,11.00
2017-10-23T18:16:30.879Z,11.00
2017-10-23T18:18:58.852Z,11.00
2017-10-23T18:21:27.439Z,11.00
2017-10-23T18:23:55.307Z,11.00
2017-10-23T18:26:22.946Z,11.00
2017-10-23T18:28:50.844Z,11.00
2017-10-23T18:31:18.779Z,11.00
2017-10-23T18:33:46.681Z,11.00
2017-10-23T18:36:14.550Z,11.10
2017-10-23T18:38:42.305Z,11.10
2017-10-23T18:41:10.891Z,11.10
2017-10-23T18:43:38.760Z,11.00
2017-10-23T18:46:06.625Z,11.10
2017-10-23T18:48:34.595Z,11.10
2017-10-23T18:51:02.365Z,11.00
2017-10-23T18:53:30.899Z,11.00
2017-10-23T18:55:59.192Z,11.00
2017-10-23T18:58:26.945Z,11.10
2017-10-23T19:00:55.573Z,11.10
2017-10-23T19:03:23.442Z,11.10
2017-10-23T19:05:51.209Z,11.10
2017-10-23T19:08:19.082Z,11.10
2017-10-23T19:10:47.049Z,11.10
2017-10-23T19:13:14.915Z,11.10
2017-10-23T19:15:42.579Z,11.10
2017-10-23T19:18:10.352Z,11.00
2017-10-23T19:20:38.212Z,11.00
2017-10-23T19:23:06.077Z,11.00
2017-10-23T19:25:33.931Z,11.00
2017-10-23T19:28:01.916Z,11.10
2017-10-23T19:30:30.698Z,11.10
2017-10-23T19:32:58.483Z,11.00
2017-10-23T19:35:26.339Z,11.10
2017-10-23T19:37:54.309Z,11.10
2017-10-23T19:40:22.176Z,11.10
2017-10-23T19:42:50.046Z,11.10
2017-10-23T19:45:17.996Z,11.00
2017-10-23T19:47:45.719Z,11.00
2017-10-23T19:50:13.657Z,11.00
2017-10-23T19:52:41.619Z,11.10
2017-10-23T19:55:09.368Z,11.00
2017-10-23T19:57:37.251Z,11.00
2017-10-23T20:00:05.054Z,11.00
2017-10-23T20:02:33.192Z,11.00
2017-10-23T20:05:01.059Z,11.00
2017-10-23T20:07:29.034Z,10.90
2017-10-23T20:09:56.999Z,10.90
2017-10-23T20:12:24.765Z,11.00
2017-10-23T20:14:54.023Z,11.00
2017-10-23T20:17:22.651Z,11.00
2017-10-23T20:19:50.548Z,11.00
2017-10-23T20:22:18.394Z,11.00
2017-10-23T20:24:46.459Z,11.00
2017-10-23T20:27:14.322Z,11.00
2017-10-23T20:29:42.207Z,11.00
2017-10-23T20:32:10.003Z,11.00
2017-10-23T20:34:37.844Z,11.00
2017-10-23T20:37:05.597Z,11.00
2017-10-23T20:39:33.408Z,11.00
2017-10-23T20:42:01.330Z,11.00
2017-10-23T20:44:29.299Z,11.00
2017-10-23T20:46:57.271Z,11.00
2017-10-23T20:49:25.958Z,11.00
2017-10-23T20:51:53.705Z,11.00
2017-10-23T20:54:22.269Z,11.00
2017-10-23T20:56:50.998Z,11.00
2017-10-23T20:59:18.790Z,11.00
2017-10-23T21:01:46.633Z,11.00
2017-10-23T21:04:14.405Z,11.10
2017-10-23T21:06:42.267Z,11.10
2017-10-23T21:09:10.134Z,11.10
2017-10-23T21:11:37.906Z,11.10
2017-10-23T21:14:06.482Z,11.10
2017-10-23T21:16:34.890Z,11.10
2017-10-23T21:19:02.624Z,11.10
2017-10-23T21:21:30.700Z,11.10
2017-10-23T21:23:58.781Z,11.10
2017-10-23T21:26:26.641Z,11.10
2017-10-23T21:28:54.404Z,11.10
2017-10-23T21:31:22.271Z,11.10
2017-10-23T21:33:49.949Z,11.10
2017-10-23T21:36:17.802Z,11.10
2017-10-23T21:38:45.599Z,11.10
2017-10-23T21:41:13.541Z,11.10
2017-10-23T21:43:41.306Z,11.00
2017-10-23T21:46:09.121Z,11.00
2017-10-23T21:48:36.939Z,11.00
2017-10-23T21:51:04.888Z,11.00
2017-10-23T21:53:32.655Z,11.00
2017-10-23T21:56:00.543Z,10.90
2017-10-23T21:58:28.510Z,10.90
2017-10-23T22:00:56.481Z,11.00
2017-10-23T22:03:24.349Z,10.90
2017-10-23T22:05:52.011Z,11.00
2017-10-23T22:08:19.881Z,10.90
2017-10-23T22:10:47.547Z,10.90
2017-10-23T22:13:15.392Z,10.90
2017-10-23T22:15:43.177Z,10.90
2017-10-23T22:18:11.044Z,10.90
2017-10-23T22:20:39.017Z,10.90
2017-10-23T22:23:06.759Z,10.90
2017-10-23T22:25:35.363Z,10.90
2017-10-23T22:28:03.233Z,10.90
2017-10-23T22:30:31.102Z,10.80
2017-10-23T22:32:59.075Z,10.80
2017-10-23T22:35:26.813Z,10.70
2017-10-23T22:37:54.601Z,10.70
2017-10-23T22:40:22.382Z,10.70
2017-10-23T22:42:50.241Z,10.70
2017-10-23T22:45:18.717Z,10.60
2017-10-23T22:47:46.630Z,10.70
2017-10-23T22:50:14.556Z,10.60
2017-10-23T22:52:42.534Z,10.60
2017-10-23T22:55:10.496Z,10.60
2017-10-23T22:57:38.266Z,10.60
2017-10-23T23:00:06.960Z,10.70
2017-10-23T23:02:34.920Z,10.70
2017-10-23T23:05:03.504Z,10.70
2017-10-23T23:07:31.370Z,10.70
2017-10-23T23:09:59.259Z,10.70
2017-10-23T23:12:27.094Z,10.70
2017-10-23T23:14:54.872Z,10.70
2017-10-23T23:17:22.641Z,10.70
2017-10-23T23:19:50.509Z,10.80
2017-10-23T23:22:18.272Z,10.70
2017-10-23T23:24:46.226Z,10.80
2017-10-23T23:27:14.212Z,10.70
2017-10-23T23:29:42.051Z,10.70
2017-10-23T23:32:09.837Z,10.70
2017-10-23T23:34:37.565Z,10.70
2017-10-23T23:37:06.003Z,10.70
2017-10-23T23:39:33.757Z,10.70
2017-10-23T23:42:02.340Z,10.70
2017-10-23T23:44:30.271Z,10.70
2017-10-23T23:46:58.280Z,10.70
2017-10-23T23:49:26.150Z,10.70
2017-10-23T23:51:54.033Z,10.70
2017-10-23T23:54:21.783Z,10.70
2017-10-23T23:56:49.471Z,10.70
2017-10-23T23:59:17.216Z,10.70
